sensor_id;sensor_type;location;lat;lon;timestamp;pressure;altitude;pressure_sealevel;temperature;humidity
71504;BME280;59323;50.874;7.028;2022-07-24T00:00:29;101629.44;;;18.76;68.24
71504;BME280;59323;50.874;7.028;2022-07-24T00:02:54;101629.44;;;18.76;68.25
71504;BME280;59323;50.874;7.028;2022-07-24T00:05:20;101626.31;;;18.74;68.10
71504;BME280;59323;50.874;7.028;2022-07-24T00:07:45;101627.88;;;18.75;68.08
71504;BME280;59323;50.874;7.028;2022-07-24T00:10:11;101626.31;;;18.74;68.25
71504;BME280;59323;50.874;7.028;2022-07-24T00:12:37;101622.75;;;18.74;68.22
71504;BME280;59323;50.874;7.028;2022-07-24T00:15:04;101629.06;;;18.74;68.47
71504;BME280;59323;50.874;7.028;2022-07-24T00:17:32;101624.34;;;18.67;68.56
71504;BME280;59323;50.874;7.028;2022-07-24T00:19:57;101627.91;;;18.68;68.65
71504;BME280;59323;50.874;7.028;2022-07-24T00:22:23;101644.41;;;18.68;68.62
71504;BME280;59323;50.874;7.028;2022-07-24T00:24:49;101636.94;;;18.65;68.91
71504;BME280;59323;50.874;7.028;2022-07-24T00:27:14;101632.25;;;18.62;69.07
71504;BME280;59323;50.874;7.028;2022-07-24T00:29:40;101626.72;;;18.58;68.83
71504;BME280;59323;50.874;7.028;2022-07-24T00:32:05;101617.28;;;18.56;69.25
71504;BME280;59323;50.874;7.028;2022-07-24T00:34:31;101621.63;;;18.53;68.93
71504;BME280;59323;50.874;7.028;2022-07-24T00:36:56;101616.13;;;18.50;69.31
71504;BME280;59323;50.874;7.028;2022-07-24T00:39:22;101613.78;;;18.45;68.73
71504;BME280;59323;50.874;7.028;2022-07-24T00:41:47;101623.22;;;18.44;69.26
71504;BME280;59323;50.874;7.028;2022-07-24T00:44:15;101620.06;;;18.38;69.41
71504;BME280;59323;50.874;7.028;2022-07-24T00:46:42;101625.59;;;18.34;69.87
71504;BME280;59323;50.874;7.028;2022-07-24T00:49:10;101625.19;;;18.32;70.01
71504;BME280;59323;50.874;7.028;2022-07-24T00:51:36;101620.47;;;18.29;69.91
71504;BME280;59323;50.874;7.028;2022-07-24T00:54:06;101613.03;;;18.26;69.92
71504;BME280;59323;50.874;7.028;2022-07-24T00:56:32;101617.75;;;18.22;70.04
71504;BME280;59323;50.874;7.028;2022-07-24T00:58:58;101612.25;;;18.22;69.85
71504;BME280;59323;50.874;7.028;2022-07-24T01:01:24;101616.19;;;18.21;70.07
71504;BME280;59323;50.874;7.028;2022-07-24T01:03:50;101615.75;;;18.19;70.15
71504;BME280;59323;50.874;7.028;2022-07-24T01:06:15;101609.84;;;18.17;70.32
71504;BME280;59323;50.874;7.028;2022-07-24T01:08:40;101622.44;;;18.18;70.24
71504;BME280;59323;50.874;7.028;2022-07-24T01:11:08;101620.47;;;18.15;70.07
71504;BME280;59323;50.874;7.028;2022-07-24T01:13:36;101610.66;;;18.11;70.27
71504;BME280;59323;50.874;7.028;2022-07-24T01:16:02;101621.66;;;18.11;70.26
71504;BME280;59323;50.874;7.028;2022-07-24T01:18:27;101618.50;;;18.09;70.36
71504;BME280;59323;50.874;7.028;2022-07-24T01:20:53;101624.41;;;18.03;70.35
71504;BME280;59323;50.874;7.028;2022-07-24T01:23:18;101624.81;;;18.02;70.12
71504;BME280;59323;50.874;7.028;2022-07-24T01:25:43;101620.50;;;17.97;70.63
71504;BME280;59323;50.874;7.028;2022-07-24T01:28:09;101612.22;;;17.94;70.55
71504;BME280;59323;50.874;7.028;2022-07-24T01:30:35;101614.19;;;17.90;70.72
71504;BME280;59323;50.874;7.028;2022-07-24T01:33:00;101613.03;;;17.91;70.74
71504;BME280;59323;50.874;7.028;2022-07-24T01:35:26;101618.91;;;17.89;70.63
71504;BME280;59323;50.874;7.028;2022-07-24T01:37:52;101618.53;;;17.91;70.88
71504;BME280;59323;50.874;7.028;2022-07-24T01:40:19;101617.75;;;17.90;71.08
71504;BME280;59323;50.874;7.028;2022-07-24T01:42:44;101615.38;;;17.89;70.83
71504;BME280;59323;50.874;7.028;2022-07-24T01:45:10;101620.50;;;17.87;70.86
71504;BME280;59323;50.874;7.028;2022-07-24T01:47:35;101609.88;;;17.82;71.06
71504;BME280;59323;50.874;7.028;2022-07-24T01:50:01;101609.88;;;17.78;71.73
71504;BME280;59323;50.874;7.028;2022-07-24T01:52:26;101607.91;;;17.75;71.49
71504;BME280;59323;50.874;7.028;2022-07-24T01:54:52;101612.22;;;17.76;71.28
71504;BME280;59323;50.874;7.028;2022-07-24T01:57:18;101600.84;;;17.78;71.42
71504;BME280;59323;50.874;7.028;2022-07-24T01:59:43;101598.50;;;17.76;71.51
71504;BME280;59323;50.874;7.028;2022-07-24T02:02:09;101606.34;;;17.74;71.58
71504;BME280;59323;50.874;7.028;2022-07-24T02:04:34;101607.13;;;17.71;72.09
71504;BME280;59323;50.874;7.028;2022-07-24T02:06:59;101602.03;;;17.69;71.78
71504;BME280;59323;50.874;7.028;2022-07-24T02:09:25;101599.66;;;17.68;71.67
71504;BME280;59323;50.874;7.028;2022-07-24T02:11:50;101605.53;;;17.63;72.29
71504;BME280;59323;50.874;7.028;2022-07-24T02:14:16;101599.63;;;17.57;72.50
71504;BME280;59323;50.874;7.028;2022-07-24T02:16:45;101606.66;;;17.55;73.08
71504;BME280;59323;50.874;7.028;2022-07-24T02:19:11;101604.31;;;17.53;72.64
71504;BME280;59323;50.874;7.028;2022-07-24T02:21:37;101609.41;;;17.51;73.07
71504;BME280;59323;50.874;7.028;2022-07-24T02:24:03;101607.03;;;17.46;73.02
71504;BME280;59323;50.874;7.028;2022-07-24T02:26:29;101605.47;;;17.41;73.34
71504;BME280;59323;50.874;7.028;2022-07-24T02:28:54;101605.44;;;17.34;73.87
71504;BME280;59323;50.874;7.028;2022-07-24T02:31:19;101608.97;;;17.35;73.92
71504;BME280;59323;50.874;7.028;2022-07-24T02:33:45;101605.06;;;17.32;73.52
71504;BME280;59323;50.874;7.028;2022-07-24T02:36:10;101605.84;;;17.33;73.55
71504;BME280;59323;50.874;7.028;2022-07-24T02:38:35;101611.31;;;17.29;73.82
71504;BME280;59323;50.874;7.028;2022-07-24T02:41:01;101608.56;;;17.26;73.99
71504;BME280;59323;50.874;7.028;2022-07-24T02:43:26;101608.16;;;17.24;74.09
71504;BME280;59323;50.874;7.028;2022-07-24T02:45:52;101608.94;;;17.21;74.10
71504;BME280;59323;50.874;7.028;2022-07-24T02:48:17;101609.72;;;17.18;74.59
71504;BME280;59323;50.874;7.028;2022-07-24T02:50:43;101595.97;;;17.14;74.53
71504;BME280;59323;50.874;7.028;2022-07-24T02:53:09;101599.50;;;17.11;74.71
71504;BME280;59323;50.874;7.028;2022-07-24T02:55:34;101595.59;;;17.12;74.25
71504;BME280;59323;50.874;7.028;2022-07-24T02:58:00;101601.88;;;17.13;74.04
71504;BME280;59323;50.874;7.028;2022-07-24T03:00:25;101597.53;;;17.08;74.88
71504;BME280;59323;50.874;7.028;2022-07-24T03:02:51;101590.84;;;17.05;75.81
71504;BME280;59323;50.874;7.028;2022-07-24T03:05:16;101596.34;;;17.02;75.79
71504;BME280;59323;50.874;7.028;2022-07-24T03:07:42;101595.53;;;16.94;76.33
71504;BME280;59323;50.874;7.028;2022-07-24T03:10:10;101592.00;;;16.94;76.22
71504;BME280;59323;50.874;7.028;2022-07-24T03:12:36;101591.94;;;16.90;76.34
71504;BME280;59323;50.874;7.028;2022-07-24T03:15:02;101599.78;;;16.88;76.72
71504;BME280;59323;50.874;7.028;2022-07-24T03:17:28;101600.16;;;16.87;76.34
71504;BME280;59323;50.874;7.028;2022-07-24T03:19:53;101593.09;;;16.82;76.47
71504;BME280;59323;50.874;7.028;2022-07-24T03:22:18;101591.50;;;16.77;76.37
71504;BME280;59323;50.874;7.028;2022-07-24T03:24:44;101586.81;;;16.78;76.01
71504;BME280;59323;50.874;7.028;2022-07-24T03:27:09;101592.69;;;16.80;76.29
71504;BME280;59323;50.874;7.028;2022-07-24T03:29:34;101579.75;;;16.77;76.41
71504;BME280;59323;50.874;7.028;2022-07-24T03:32:00;101578.97;;;16.76;76.62
71504;BME280;59323;50.874;7.028;2022-07-24T03:34:25;101588.75;;;16.77;76.25
71504;BME280;59323;50.874;7.028;2022-07-24T03:36:51;101588.34;;;16.75;76.07
71504;BME280;59323;50.874;7.028;2022-07-24T03:39:16;101583.66;;;16.76;75.77
71504;BME280;59323;50.874;7.028;2022-07-24T03:41:42;101585.22;;;16.77;76.11
71504;BME280;59323;50.874;7.028;2022-07-24T03:44:07;101582.88;;;16.75;76.28
71504;BME280;59323;50.874;7.028;2022-07-24T03:46:33;101589.16;;;16.76;76.00
71504;BME280;59323;50.874;7.028;2022-07-24T03:48:58;101583.25;;;16.74;76.25
71504;BME280;59323;50.874;7.028;2022-07-24T03:51:24;101584.44;;;16.73;75.85
71504;BME280;59323;50.874;7.028;2022-07-24T03:53:49;101578.56;;;16.74;75.59
71504;BME280;59323;50.874;7.028;2022-07-24T03:56:15;101592.69;;;16.80;75.64
71504;BME280;59323;50.874;7.028;2022-07-24T03:58:40;101593.91;;;16.86;75.42
71504;BME280;59323;50.874;7.028;2022-07-24T04:01:06;101598.63;;;16.89;75.02
71504;BME280;59323;50.874;7.028;2022-07-24T04:03:31;101599.78;;;16.88;75.42
71504;BME280;59323;50.874;7.028;2022-07-24T04:05:57;101596.25;;;16.84;75.13
71504;BME280;59323;50.874;7.028;2022-07-24T04:08:22;101601.75;;;16.88;75.42
71504;BME280;59323;50.874;7.028;2022-07-24T04:10:48;101604.09;;;16.89;75.30
71504;BME280;59323;50.874;7.028;2022-07-24T04:13:13;101600.19;;;16.90;75.10
71504;BME280;59323;50.874;7.028;2022-07-24T04:15:38;101603.75;;;16.91;75.19
71504;BME280;59323;50.874;7.028;2022-07-24T04:18:04;101601.34;;;16.89;75.55
71504;BME280;59323;50.874;7.028;2022-07-24T04:20:29;101603.31;;;16.89;75.05
71504;BME280;59323;50.874;7.028;2022-07-24T04:22:55;101612.34;;;16.89;75.26
71504;BME280;59323;50.874;7.028;2022-07-24T04:25:20;101604.88;;;16.86;75.27
71504;BME280;59323;50.874;7.028;2022-07-24T04:27:46;101612.72;;;16.88;75.19
71504;BME280;59323;50.874;7.028;2022-07-24T04:30:13;101609.97;;;16.88;75.27
71504;BME280;59323;50.874;7.028;2022-07-24T04:32:39;101606.84;;;16.89;75.17
71504;BME280;59323;50.874;7.028;2022-07-24T04:35:05;101607.28;;;16.91;75.33
71504;BME280;59323;50.874;7.028;2022-07-24T04:37:31;101605.72;;;16.94;75.83
71504;BME280;59323;50.874;7.028;2022-07-24T04:39:57;101609.25;;;16.94;75.66
71504;BME280;59323;50.874;7.028;2022-07-24T04:42:22;101609.69;;;17.03;74.80
71504;BME280;59323;50.874;7.028;2022-07-24T04:44:48;101605.41;;;17.13;74.53
71504;BME280;59323;50.874;7.028;2022-07-24T04:47:13;101605.41;;;17.24;74.42
71504;BME280;59323;50.874;7.028;2022-07-24T04:49:40;101604.25;;;17.32;73.93
71504;BME280;59323;50.874;7.028;2022-07-24T04:52:05;101601.13;;;17.37;73.79
71504;BME280;59323;50.874;7.028;2022-07-24T04:54:30;101603.88;;;17.40;73.90
71504;BME280;59323;50.874;7.028;2022-07-24T04:56:56;101612.16;;;17.48;73.84
71504;BME280;59323;50.874;7.028;2022-07-24T04:59:21;101606.69;;;17.58;73.09
71504;BME280;59323;50.874;7.028;2022-07-24T05:01:46;101599.66;;;17.71;73.07
71504;BME280;59323;50.874;7.028;2022-07-24T05:04:12;101611.84;;;17.85;72.37
71504;BME280;59323;50.874;7.028;2022-07-24T05:06:37;101614.59;;;17.92;72.37
71504;BME280;59323;50.874;7.028;2022-07-24T05:09:03;101603.19;;;18.04;71.88
71504;BME280;59323;50.874;7.028;2022-07-24T05:11:28;101608.28;;;18.13;70.95
71504;BME280;59323;50.874;7.028;2022-07-24T05:13:53;101607.91;;;18.25;70.14
71504;BME280;59323;50.874;7.028;2022-07-24T05:16:19;101602.00;;;18.37;69.97
71504;BME280;59323;50.874;7.028;2022-07-24T05:18:44;101596.06;;;18.53;69.59
71504;BME280;59323;50.874;7.028;2022-07-24T05:21:10;101606.63;;;18.76;69.06
71504;BME280;59323;50.874;7.028;2022-07-24T05:23:35;101605.81;;;18.89;68.06
71504;BME280;59323;50.874;7.028;2022-07-24T05:26:01;101605.38;;;18.98;67.66
71504;BME280;59323;50.874;7.028;2022-07-24T05:28:26;101605.28;;;19.16;67.67
71504;BME280;59323;50.874;7.028;2022-07-24T05:30:51;101609.56;;;19.24;66.89
71504;BME280;59323;50.874;7.028;2022-07-24T05:33:17;101603.63;;;19.32;66.56
71504;BME280;59323;50.874;7.028;2022-07-24T05:35:42;101596.50;;;19.39;67.06
71504;BME280;59323;50.874;7.028;2022-07-24T05:38:07;101605.88;;;19.52;66.79
71504;BME280;59323;50.874;7.028;2022-07-24T05:40:33;101601.19;;;19.52;66.29
71504;BME280;59323;50.874;7.028;2022-07-24T05:42:58;101603.84;;;19.67;66.20
71504;BME280;59323;50.874;7.028;2022-07-24T05:45:24;101607.28;;;19.78;66.03
71504;BME280;59323;50.874;7.028;2022-07-24T05:47:49;101595.00;;;19.86;65.94
71504;BME280;59323;50.874;7.028;2022-07-24T05:50:15;101604.28;;;20.06;65.39
71504;BME280;59323;50.874;7.028;2022-07-24T05:52:41;101593.97;;;20.14;65.46
71504;BME280;59323;50.874;7.028;2022-07-24T05:55:07;101601.06;;;20.18;64.72
71504;BME280;59323;50.874;7.028;2022-07-24T05:57:33;101604.00;;;20.42;64.15
71504;BME280;59323;50.874;7.028;2022-07-24T05:59:58;101607.06;;;20.51;63.65
71504;BME280;59323;50.874;7.028;2022-07-24T06:02:24;101602.28;;;20.55;63.40
71504;BME280;59323;50.874;7.028;2022-07-24T06:04:49;101596.66;;;20.62;64.33
71504;BME280;59323;50.874;7.028;2022-07-24T06:07:15;101602.56;;;20.64;62.00
71504;BME280;59323;50.874;7.028;2022-07-24T06:09:40;101602.22;;;20.58;61.81
71504;BME280;59323;50.874;7.028;2022-07-24T06:12:06;101606.06;;;20.68;61.85
71504;BME280;59323;50.874;7.028;2022-07-24T06:14:32;101601.19;;;20.83;61.55
71504;BME280;59323;50.874;7.028;2022-07-24T06:16:58;101596.09;;;21.08;61.15
71504;BME280;59323;50.874;7.028;2022-07-24T06:19:24;101610.41;;;21.34;60.08
71504;BME280;59323;50.874;7.028;2022-07-24T06:21:50;101604.16;;;21.57;59.48
71504;BME280;59323;50.874;7.028;2022-07-24T06:24:15;101599.06;;;21.78;58.41
71504;BME280;59323;50.874;7.028;2022-07-24T06:26:41;101605.50;;;21.95;58.64
71504;BME280;59323;50.874;7.028;2022-07-24T06:29:06;101601.56;;;22.20;58.48
71504;BME280;59323;50.874;7.028;2022-07-24T06:31:32;101600.53;;;22.33;56.67
71504;BME280;59323;50.874;7.028;2022-07-24T06:33:57;101593.28;;;22.39;56.00
71504;BME280;59323;50.874;7.028;2022-07-24T06:36:23;101597.13;;;22.65;55.76
71504;BME280;59323;50.874;7.028;2022-07-24T06:38:48;101596.50;;;22.77;55.73
71504;BME280;59323;50.874;7.028;2022-07-24T06:41:14;101600.78;;;23.02;55.10
71504;BME280;59323;50.874;7.028;2022-07-24T06:43:39;101600.53;;;23.13;54.48
71504;BME280;59323;50.874;7.028;2022-07-24T06:46:05;101599.28;;;23.33;54.17
71504;BME280;59323;50.874;7.028;2022-07-24T06:48:31;101598.56;;;23.29;53.77
71504;BME280;59323;50.874;7.028;2022-07-24T06:50:56;101597.41;;;23.47;53.59
71504;BME280;59323;50.874;7.028;2022-07-24T06:53:22;101595.72;;;23.69;54.13
71504;BME280;59323;50.874;7.028;2022-07-24T06:55:47;101590.84;;;23.89;53.09
71504;BME280;59323;50.874;7.028;2022-07-24T06:58:13;101601.41;;;23.94;52.13
71504;BME280;59323;50.874;7.028;2022-07-24T07:00:39;101593.44;;;24.13;51.82
71504;BME280;59323;50.874;7.028;2022-07-24T07:03:05;101603.66;;;24.32;52.14
71504;BME280;59323;50.874;7.028;2022-07-24T07:05:30;101594.44;;;24.35;50.96
71504;BME280;59323;50.874;7.028;2022-07-24T07:07:56;101607.59;;;24.47;52.02
71504;BME280;59323;50.874;7.028;2022-07-24T07:10:22;101591.47;;;24.71;50.59
71504;BME280;59323;50.874;7.028;2022-07-24T07:12:48;101598.28;;;24.95;51.10
71504;BME280;59323;50.874;7.028;2022-07-24T07:15:14;101604.25;;;25.23;50.34
71504;BME280;59323;50.874;7.028;2022-07-24T07:17:42;101588.34;;;25.36;49.33
71504;BME280;59323;50.874;7.028;2022-07-24T07:20:09;101601.38;;;25.52;49.07
71504;BME280;59323;50.874;7.028;2022-07-24T07:22:35;101599.34;;;25.65;47.91
71504;BME280;59323;50.874;7.028;2022-07-24T07:25:00;101604.13;;;25.65;47.27
71504;BME280;59323;50.874;7.028;2022-07-24T07:27:26;101596.69;;;25.74;47.04
71504;BME280;59323;50.874;7.028;2022-07-24T07:29:52;101602.88;;;25.91;47.73
71504;BME280;59323;50.874;7.028;2022-07-24T07:32:17;101598.53;;;26.03;47.46
71504;BME280;59323;50.874;7.028;2022-07-24T07:34:43;101602.63;;;26.45;47.72
71504;BME280;59323;50.874;7.028;2022-07-24T07:37:08;101604.13;;;26.59;46.11
71504;BME280;59323;50.874;7.028;2022-07-24T07:39:34;101600.25;;;26.78;46.14
71504;BME280;59323;50.874;7.028;2022-07-24T07:41:59;101602.63;;;26.89;45.41
71504;BME280;59323;50.874;7.028;2022-07-24T07:44:24;101608.56;;;26.69;46.15
71504;BME280;59323;50.874;7.028;2022-07-24T07:46:50;101604.41;;;26.74;44.27
71504;BME280;59323;50.874;7.028;2022-07-24T07:49:15;101598.69;;;26.99;46.26
71504;BME280;59323;50.874;7.028;2022-07-24T07:51:41;101606.13;;;27.33;45.71
71504;BME280;59323;50.874;7.028;2022-07-24T07:54:07;101602.03;;;27.56;44.36
71504;BME280;59323;50.874;7.028;2022-07-24T07:56:32;101606.75;;;27.77;44.67
71504;BME280;59323;50.874;7.028;2022-07-24T07:58:58;101599.31;;;27.93;41.82
71504;BME280;59323;50.874;7.028;2022-07-24T08:01:24;101603.19;;;27.86;43.44
71504;BME280;59323;50.874;7.028;2022-07-24T08:03:49;101601.47;;;27.70;41.90
71504;BME280;59323;50.874;7.028;2022-07-24T08:06:15;101604.41;;;27.67;43.67
71504;BME280;59323;50.874;7.028;2022-07-24T08:08:40;101592.66;;;27.90;43.25
71504;BME280;59323;50.874;7.028;2022-07-24T08:11:06;101588.06;;;28.24;43.65
71504;BME280;59323;50.874;7.028;2022-07-24T08:13:31;101597.66;;;28.41;42.79
71504;BME280;59323;50.874;7.028;2022-07-24T08:15:57;101593.00;;;28.47;41.97
71504;BME280;59323;50.874;7.028;2022-07-24T08:18:22;101586.31;;;28.63;42.23
71504;BME280;59323;50.874;7.028;2022-07-24T08:20:48;101590.47;;;28.95;41.97
71504;BME280;59323;50.874;7.028;2022-07-24T08:23:13;101589.72;;;28.76;40.37
71504;BME280;59323;50.874;7.028;2022-07-24T08:25:38;101586.91;;;28.85;40.63
71504;BME280;59323;50.874;7.028;2022-07-24T08:28:04;101594.69;;;28.90;40.83
71504;BME280;59323;50.874;7.028;2022-07-24T08:30:30;101592.75;;;29.06;40.84
71504;BME280;59323;50.874;7.028;2022-07-24T08:32:55;101576.47;;;29.37;40.94
71504;BME280;59323;50.874;7.028;2022-07-24T08:35:21;101586.28;;;29.65;39.79
71504;BME280;59323;50.874;7.028;2022-07-24T08:37:48;101578.53;;;29.60;39.62
71504;BME280;59323;50.874;7.028;2022-07-24T08:40:14;101574.66;;;29.82;39.50
71504;BME280;59323;50.874;7.028;2022-07-24T08:42:40;101574.81;;;29.78;37.27
71504;BME280;59323;50.874;7.028;2022-07-24T08:45:07;101574.53;;;29.76;36.93
71504;BME280;59323;50.874;7.028;2022-07-24T08:47:33;101573.75;;;29.76;38.06
71504;BME280;59323;50.874;7.028;2022-07-24T08:49:59;101572.38;;;29.95;37.77
71504;BME280;59323;50.874;7.028;2022-07-24T08:52:25;101570.16;;;30.23;38.04
71504;BME280;59323;50.874;7.028;2022-07-24T08:54:52;101570.81;;;30.03;36.42
71504;BME280;59323;50.874;7.028;2022-07-24T08:57:17;101572.84;;;30.17;38.01
71504;BME280;59323;50.874;7.028;2022-07-24T08:59:43;101561.34;;;30.15;38.57
71504;BME280;59323;50.874;7.028;2022-07-24T09:02:08;101569.22;;;30.55;37.31
71504;BME280;59323;50.874;7.028;2022-07-24T09:07:07;101567.97;;;31.01;37.05
71504;BME280;59323;50.874;7.028;2022-07-24T09:09:34;101567.38;;;31.26;36.53
71504;BME280;59323;50.874;7.028;2022-07-24T09:12:05;101559.03;;;31.32;34.61
71504;BME280;59323;50.874;7.028;2022-07-24T09:14:35;101560.22;;;30.96;35.16
71504;BME280;59323;50.874;7.028;2022-07-24T09:17:06;101559.13;;;31.08;35.19
71504;BME280;59323;50.874;7.028;2022-07-24T09:19:48;101548.59;;;31.17;35.62
71504;BME280;59323;50.874;7.028;2022-07-24T09:25:04;101541.16;;;31.00;34.64
71504;BME280;59323;50.874;7.028;2022-07-24T09:27:29;101547.38;;;30.74;34.94
71504;BME280;59323;50.874;7.028;2022-07-24T09:29:55;101541.09;;;30.79;33.91
71504;BME280;59323;50.874;7.028;2022-07-24T09:32:24;101539.59;;;30.99;35.38
71504;BME280;59323;50.874;7.028;2022-07-24T09:34:53;101538.25;;;31.24;34.46
71504;BME280;59323;50.874;7.028;2022-07-24T09:37:19;101530.88;;;31.46;34.67
71504;BME280;59323;50.874;7.028;2022-07-24T09:39:45;101530.25;;;31.57;34.99
71504;BME280;59323;50.874;7.028;2022-07-24T09:42:11;101525.91;;;31.56;34.50
71504;BME280;59323;50.874;7.028;2022-07-24T09:44:37;101519.09;;;31.83;33.65
71504;BME280;59323;50.874;7.028;2022-07-24T09:47:08;101512.19;;;32.04;33.28
71504;BME280;59323;50.874;7.028;2022-07-24T09:49:36;101511.78;;;32.17;32.57
71504;BME280;59323;50.874;7.028;2022-07-24T09:54:32;101511.91;;;32.02;33.27
71504;BME280;59323;50.874;7.028;2022-07-24T09:59:45;101507.31;;;32.25;33.44
71504;BME280;59323;50.874;7.028;2022-07-24T10:02:13;101512.75;;;32.34;33.92
71504;BME280;59323;50.874;7.028;2022-07-24T10:04:41;101506.16;;;32.17;32.49
71504;BME280;59323;50.874;7.028;2022-07-24T10:07:09;101501.69;;;32.05;32.32
71504;BME280;59323;50.874;7.028;2022-07-24T10:09:36;101500.31;;;32.21;32.24
71504;BME280;59323;50.874;7.028;2022-07-24T10:12:12;101502.00;;;32.33;33.02
71504;BME280;59323;50.874;7.028;2022-07-24T10:14:38;101503.22;;;32.52;31.45
71504;BME280;59323;50.874;7.028;2022-07-24T10:17:07;101500.19;;;32.30;33.25
71504;BME280;59323;50.874;7.028;2022-07-24T10:19:47;101494.41;;;32.19;33.84
71504;BME280;59323;50.874;7.028;2022-07-24T10:22:19;101496.19;;;32.16;32.58
71504;BME280;59323;50.874;7.028;2022-07-24T10:25:05;101488.97;;;32.09;32.78
71504;BME280;59323;50.874;7.028;2022-07-24T10:27:34;101485.25;;;32.24;33.11
71504;BME280;59323;50.874;7.028;2022-07-24T10:30:05;101480.47;;;32.30;32.40
71504;BME280;59323;50.874;7.028;2022-07-24T10:32:33;101484.47;;;32.49;32.37
71504;BME280;59323;50.874;7.028;2022-07-24T10:35:04;101481.66;;;32.49;31.43
71504;BME280;59323;50.874;7.028;2022-07-24T10:37:42;101475.59;;;32.56;32.06
71504;BME280;59323;50.874;7.028;2022-07-24T10:45:44;101463.56;;;32.24;31.48
71504;BME280;59323;50.874;7.028;2022-07-24T10:51:11;101469.81;;;32.13;31.40
71504;BME280;59323;50.874;7.028;2022-07-24T10:53:49;101461.06;;;32.06;30.89
71504;BME280;59323;50.874;7.028;2022-07-24T10:56:25;101461.69;;;31.90;33.42
71504;BME280;59323;50.874;7.028;2022-07-24T10:58:59;101451.75;;;31.94;32.17
71504;BME280;59323;50.874;7.028;2022-07-24T11:03:58;101451.09;;;32.05;31.55
71504;BME280;59323;50.874;7.028;2022-07-24T11:06:40;101441.25;;;32.21;31.71
71504;BME280;59323;50.874;7.028;2022-07-24T11:09:06;101437.81;;;32.37;31.44
71504;BME280;59323;50.874;7.028;2022-07-24T11:11:31;101435.38;;;32.50;31.09
71504;BME280;59323;50.874;7.028;2022-07-24T11:13:57;101439.72;;;32.51;32.05
71504;BME280;59323;50.874;7.028;2022-07-24T11:16:29;101430.31;;;32.54;32.09
71504;BME280;59323;50.874;7.028;2022-07-24T11:26:51;101422.84;;;32.88;31.48
71504;BME280;59323;50.874;7.028;2022-07-24T11:29:26;101413.53;;;32.71;31.02
71504;BME280;59323;50.874;7.028;2022-07-24T11:32:09;101412.53;;;32.42;31.25
71504;BME280;59323;50.874;7.028;2022-07-24T11:34:37;101413.44;;;32.60;29.79
71504;BME280;59323;50.874;7.028;2022-07-24T11:37:03;101409.59;;;32.57;30.89
71504;BME280;59323;50.874;7.028;2022-07-24T11:39:31;101401.75;;;32.72;31.67
71504;BME280;59323;50.874;7.028;2022-07-24T11:42:02;101401.38;;;32.91;31.73
71504;BME280;59323;50.874;7.028;2022-07-24T11:44:33;101394.00;;;33.04;30.29
71504;BME280;59323;50.874;7.028;2022-07-24T11:47:04;101394.75;;;32.99;30.38
71504;BME280;59323;50.874;7.028;2022-07-24T11:49:30;101391.19;;;33.10;30.33
71504;BME280;59323;50.874;7.028;2022-07-24T11:51:56;101393.06;;;33.19;30.05
71504;BME280;59323;50.874;7.028;2022-07-24T11:54:26;101384.75;;;32.98;30.22
71504;BME280;59323;50.874;7.028;2022-07-24T11:56:53;101386.56;;;33.01;29.86
71504;BME280;59323;50.874;7.028;2022-07-24T11:59:27;101377.78;;;32.83;28.89
71504;BME280;59323;50.874;7.028;2022-07-24T12:02:03;101377.78;;;32.83;28.63
71504;BME280;59323;50.874;7.028;2022-07-24T12:04:29;101367.13;;;32.61;27.78
71504;BME280;59323;50.874;7.028;2022-07-24T12:06:54;101358.09;;;32.51;28.84
71504;BME280;59323;50.874;7.028;2022-07-24T12:09:20;101365.16;;;32.35;29.43
71504;BME280;59323;50.874;7.028;2022-07-24T12:11:45;101372.72;;;32.24;29.98
71504;BME280;59323;50.874;7.028;2022-07-24T12:14:19;101369.03;;;32.38;31.01
71504;BME280;59323;50.874;7.028;2022-07-24T12:16:51;101366.91;;;32.64;30.65
71504;BME280;59323;50.874;7.028;2022-07-24T12:19:21;101366.16;;;32.69;29.90
71504;BME280;59323;50.874;7.028;2022-07-24T12:21:50;101365.63;;;32.65;30.00
71504;BME280;59323;50.874;7.028;2022-07-24T12:24:16;101352.88;;;32.75;31.11
71504;BME280;59323;50.874;7.028;2022-07-24T12:29:17;101353.19;;;32.77;28.65
71504;BME280;59323;50.874;7.028;2022-07-24T12:31:42;101341.34;;;32.73;28.80
71504;BME280;59323;50.874;7.028;2022-07-24T12:34:07;101331.91;;;32.76;29.90
71504;BME280;59323;50.874;7.028;2022-07-24T12:36:33;101333.72;;;32.80;28.43
71504;BME280;59323;50.874;7.028;2022-07-24T12:38:59;101319.72;;;32.48;29.75
71504;BME280;59323;50.874;7.028;2022-07-24T12:41:26;101327.50;;;32.64;28.76
71504;BME280;59323;50.874;7.028;2022-07-24T12:43:58;101321.38;;;32.71;28.77
71504;BME280;59323;50.874;7.028;2022-07-24T12:46:30;101322.91;;;32.67;29.09
71504;BME280;59323;50.874;7.028;2022-07-24T12:51:52;101316.06;;;32.36;29.60
71504;BME280;59323;50.874;7.028;2022-07-24T12:54:30;101313.75;;;32.35;31.50
71504;BME280;59323;50.874;7.028;2022-07-24T12:57:09;101311.69;;;32.30;29.79
71504;BME280;59323;50.874;7.028;2022-07-24T12:59:38;101307.50;;;32.20;28.56
71504;BME280;59323;50.874;7.028;2022-07-24T13:02:05;101308.47;;;32.11;29.21
71504;BME280;59323;50.874;7.028;2022-07-24T13:04:32;101294.09;;;32.03;30.08
71504;BME280;59323;50.874;7.028;2022-07-24T13:07:00;101288.78;;;32.11;29.74
71504;BME280;59323;50.874;7.028;2022-07-24T13:09:28;101295.91;;;32.06;29.78
71504;BME280;59323;50.874;7.028;2022-07-24T13:11:55;101285.69;;;32.09;30.33
71504;BME280;59323;50.874;7.028;2022-07-24T13:14:22;101283.78;;;32.26;30.05
71504;BME280;59323;50.874;7.028;2022-07-24T13:16:49;101277.41;;;32.31;29.62
71504;BME280;59323;50.874;7.028;2022-07-24T13:19:16;101276.69;;;32.42;29.64
71504;BME280;59323;50.874;7.028;2022-07-24T13:21:42;101273.88;;;32.42;29.77